Time;durP1;ratioP1;P1;durP2;ratioP2;P2;SDS_P1;SDS_P2;PMS_P1;PMS_P2;Temp;Humidity;BMP_temperature;BMP_pressure;BME280_temperature;BME280_humidity;BME280_pressure;Samples;Min_cycle;Max_cycle;Signal;HPM_P1;HPM_P2
2022/06/21 00:01:34;;;;;;;5.80;3.53;;;10.60;99.90;;;-144.05;73.57;125687.94;6134175;23;20016;-88
2022/06/21 00:04:07;;;;;;;9.48;4.00;;;10.60;99.90;;;-144.05;74.07;125687.94;6137099;23;20074;-89
2022/06/21 00:06:33;;;;;;;6.60;3.85;;;10.60;99.90;;;-144.05;74.16;125687.94;6163019;23;20009;-85
2022/06/21 00:09:09;;;;;;;7.00;3.30;;;10.50;99.90;;;-144.05;74.44;125687.94;6162930;23;20013;-88
2022/06/21 00:11:38;;;;;;;4.95;3.33;;;10.50;99.90;;;-144.05;75.39;125687.94;6134785;23;20005;-88
2022/06/21 00:14:04;;;;;;;6.40;3.95;;;10.50;99.90;;;-144.05;75.34;125687.94;6131710;23;20376;-85
2022/06/21 00:16:37;;;;;;;9.05;4.68;;;10.60;99.90;;;-144.05;75.91;125687.94;6156244;23;20006;-88
2022/06/21 00:19:12;;;;;;;7.50;4.40;;;10.50;99.90;;;-144.05;75.98;125687.94;6131910;23;20116;-88
2022/06/21 00:21:55;;;;;;;6.65;3.75;;;10.60;99.90;;;-144.05;75.29;125687.94;6131928;23;20005;-86
2022/06/21 00:24:26;;;;;;;5.65;4.20;;;10.60;99.90;;;-144.05;75.35;125687.94;6132446;23;20010;-87
2022/06/21 00:26:55;;;;;;;6.70;4.07;;;10.60;99.90;;;-144.05;75.84;125687.94;6131904;23;20017;-89
2022/06/21 00:29:24;;;;;;;10.10;4.35;;;10.50;99.90;;;-144.05;75.93;125687.94;6156412;23;20009;-90
2022/06/21 00:31:53;;;;;;;6.30;4.53;;;10.40;99.90;;;-144.05;75.97;125687.94;6156992;23;20006;-85
2022/06/21 00:34:22;;;;;;;6.07;4.05;;;10.40;99.90;;;-144.05;76.26;125687.94;6155835;23;20009;-87
2022/06/21 00:37:00;;;;;;;8.45;4.35;;;10.30;99.90;;;-144.05;76.47;125687.94;6156476;23;20080;-86
2022/06/21 00:39:29;;;;;;;6.32;4.30;;;10.20;99.90;;;-144.05;76.88;125687.94;6131023;23;20016;-88
2022/06/21 00:42:45;;;;;;;8.55;4.90;;;10.20;99.90;;;-144.05;77.51;125687.94;6132314;23;20010;-90
2022/06/21 00:45:43;;;;;;;8.00;4.30;;;10.30;99.90;;;-144.05;77.41;125687.94;6139988;23;20084;-87
2022/06/21 00:48:32;;;;;;;8.43;4.03;;;10.40;99.90;;;-144.05;77.27;125687.94;6156583;23;20378;-88
2022/06/21 00:51:19;;;;;;;6.60;4.68;;;10.40;99.90;;;-144.05;77.43;125687.94;6131317;23;20016;-89
2022/06/21 00:54:32;;;;;;;6.57;3.92;;;10.50;99.90;;;-144.05;77.28;125687.94;6131599;23;20293;-88
2022/06/21 00:57:18;;;;;;;7.68;4.00;;;10.20;99.90;;;-144.05;76.95;125687.94;6132628;23;20001;-88
2022/06/21 00:59:51;;;;;;;5.47;4.55;;;10.50;99.90;;;-144.05;77.18;125687.94;6159720;23;20021;-88
2022/06/21 01:02:37;;;;;;;8.05;4.80;;;10.50;99.90;;;-144.05;77.08;125687.94;6135418;23;20010;-90
2022/06/21 01:05:07;;;;;;;5.20;3.88;;;10.40;99.90;;;-144.05;76.64;125687.94;6153831;23;20081;-86
2022/06/21 01:07:46;;;;;;;7.53;3.80;;;10.50;99.90;;;-144.05;76.89;125687.94;6157830;23;20010;-87
2022/06/21 01:10:17;;;;;;;6.47;3.85;;;10.30;99.90;;;-144.05;77.08;125687.94;6134862;23;20088;-88
2022/06/21 01:13:19;;;;;;;8.90;4.50;;;10.20;99.90;;;-144.05;77.60;125687.94;6135686;23;20009;-86
2022/06/21 01:15:54;;;;;;;10.45;4.30;;;10.10;99.90;;;-144.05;77.54;125687.94;6163222;23;20009;-89
2022/06/21 01:18:24;;;;;;;8.38;3.88;;;10.00;99.90;;;-144.05;78.26;125687.94;6165540;23;20011;-88
2022/06/21 01:21:09;;;;;;;7.32;3.58;;;10.20;99.90;;;-144.05;78.31;125687.94;6155768;23;20073;-84
2022/06/21 01:24:16;;;;;;;8.80;4.57;;;9.80;99.90;;;-144.05;78.70;125687.94;6179064;23;20002;-84
2022/06/21 01:26:55;;;;;;;10.23;4.47;;;9.80;99.90;;;-144.05;79.30;125687.94;6163431;23;20010;-82
2022/06/21 01:29:30;;;;;;;7.55;4.15;;;9.80;99.90;;;-144.05;79.75;125687.94;6178621;23;20077;-85
2022/06/21 01:32:04;;;;;;;9.30;5.18;;;9.90;99.90;;;-144.05;79.65;125687.94;6178913;23;20025;-85
2022/06/21 01:34:30;;;;;;;7.05;4.20;;;9.90;99.90;;;-144.05;79.40;125687.94;6175527;23;20073;-87
2022/06/21 01:37:18;;;;;;;6.57;4.22;;;9.90;99.90;;;-144.05;79.42;125687.94;6153115;23;20060;-88
2022/06/21 01:40:11;;;;;;;5.95;4.45;;;9.90;99.90;;;-144.05;79.57;125687.94;6145606;23;20343;-87
2022/06/21 01:42:47;;;;;;;8.50;4.53;;;9.80;99.90;;;-144.05;79.71;125687.94;6130212;23;20002;-86
2022/06/21 01:45:33;;;;;;;9.40;4.95;;;9.80;99.90;;;-144.05;80.05;125687.94;6156619;23;20454;-88
2022/06/21 01:48:21;;;;;;;5.30;4.15;;;9.80;99.90;;;-144.05;80.07;125687.94;6132417;23;20065;-88
2022/06/21 01:50:59;;;;;;;7.07;4.43;;;9.70;99.90;;;-144.05;80.35;125687.94;6134176;23;20033;-87
2022/06/21 01:53:27;;;;;;;11.63;5.05;;;9.70;99.90;;;-144.05;80.35;125687.94;6158328;23;20321;-86
2022/06/21 01:56:08;;;;;;;6.78;4.80;;;9.80;99.90;;;-144.05;80.32;125687.94;6133907;23;20009;-89
2022/06/21 01:58:45;;;;;;;6.78;4.60;;;9.70;99.90;;;-144.05;80.46;125687.94;6133525;23;20006;-88
2022/06/21 02:01:37;;;;;;;6.18;4.85;;;9.70;99.90;;;-144.05;80.77;125687.94;6161382;23;20008;-88
2022/06/21 02:04:09;;;;;;;10.27;4.57;;;9.70;99.90;;;-144.05;80.53;125687.94;6152071;23;20100;-86
2022/06/21 02:06:46;;;;;;;9.07;4.30;;;8.80;99.90;;;-144.05;80.90;125687.94;6149856;23;19994;-86
2022/06/21 02:09:35;;;;;;;7.03;4.85;;;9.60;99.90;;;-144.05;81.11;125687.94;6163003;23;20017;-88
2022/06/21 02:12:12;;;;;;;7.18;4.60;;;9.60;99.90;;;-144.05;80.97;125687.94;6133768;23;19998;-87
2022/06/21 02:14:52;;;;;;;7.72;5.03;;;9.60;99.90;;;-144.05;81.09;125687.94;6133228;23;20383;-87
2022/06/21 02:17:31;;;;;;;8.25;5.38;;;9.50;99.90;;;-144.05;81.10;125687.94;6157868;23;20005;-89
2022/06/21 02:20:32;;;;;;;5.95;4.45;;;9.50;99.90;;;-144.05;81.31;125687.94;6132751;23;20013;-88
2022/06/21 02:22:59;;;;;;;8.63;4.80;;;9.50;99.90;;;-144.05;81.51;125687.94;6133279;23;20438;-89
2022/06/21 02:25:29;;;;;;;9.63;5.13;;;9.40;99.90;;;-144.05;81.61;125687.94;6132425;23;20009;-87
2022/06/21 02:28:07;;;;;;;8.55;5.28;;;9.40;99.90;;;-144.05;81.88;125687.94;6157650;23;20013;-89
2022/06/21 02:30:36;;;;;;;10.75;4.32;;;9.40;99.90;;;-144.05;81.72;125687.94;6157617;23;20019;-88
2022/06/21 02:33:16;;;;;;;5.65;4.28;;;9.30;99.90;;;-144.05;81.91;125687.94;6134162;23;20020;-87
2022/06/21 02:36:13;;;;;;;7.93;5.00;;;9.30;99.90;;;-144.05;82.53;125687.94;6134050;23;20017;-89
2022/06/21 02:39:00;;;;;;;6.55;4.78;;;9.40;99.90;;;-144.05;82.84;125687.94;6157462;23;20513;-88
2022/06/21 02:41:39;;;;;;;8.55;4.45;;;9.20;99.90;;;-144.05;82.62;125687.94;6158492;23;20331;-89
2022/06/21 02:44:24;;;;;;;7.35;5.55;;;9.20;99.90;;;-144.05;82.72;125687.94;6134427;23;20016;-88
2022/06/21 02:47:07;;;;;;;5.63;4.60;;;9.20;99.90;;;-144.05;82.49;125687.94;6169804;23;20032;-87
2022/06/21 02:49:46;;;;;;;8.73;5.05;;;9.10;99.90;;;-144.05;82.78;125687.94;6146891;23;20010;-88
2022/06/21 02:52:35;;;;;;;6.85;5.38;;;9.10;99.90;;;-144.05;83.19;125687.94;6140935;23;20009;-85
2022/06/21 02:55:45;;;;;;;7.13;4.28;;;9.10;99.90;;;-144.05;83.38;125687.94;6161720;23;20086;-88
2022/06/21 02:58:37;;;;;;;8.20;5.18;;;9.10;99.90;;;-144.05;83.52;125687.94;6134578;23;20097;-89
2022/06/21 03:01:32;;;;;;;7.25;4.43;;;9.00;99.90;;;-144.05;83.57;125687.94;6158322;23;20383;-89
2022/06/21 03:04:05;;;;;;;9.60;5.13;;;9.00;99.90;;;-144.05;83.44;125687.94;6157531;23;20399;-89
2022/06/21 03:06:34;;;;;;;6.60;4.53;;;8.90;99.90;;;-144.05;83.68;125687.94;6159471;23;20510;-86
2022/06/21 03:09:14;;;;;;;7.78;5.20;;;8.90;99.90;;;-144.05;83.86;125687.94;6133726;23;20028;-89
2022/06/21 03:11:46;;;;;;;7.25;4.82;;;8.90;99.90;;;-144.05;84.01;125687.94;6133208;23;20084;-89
2022/06/21 03:14:25;;;;;;;8.90;5.38;;;8.90;99.90;;;-144.05;84.09;125687.94;6134130;23;20105;-87
2022/06/21 03:16:56;;;;;;;7.60;5.30;;;8.90;99.90;;;-144.05;84.31;125687.94;6134521;23;20041;-85
2022/06/21 03:19:40;;;;;;;6.82;4.90;;;8.90;99.90;;;-144.05;84.07;125687.94;6134536;23;20013;-90
2022/06/21 03:22:25;;;;;;;7.38;4.93;;;8.90;99.90;;;-144.05;84.49;125687.94;6160648;23;20075;-89
2022/06/21 03:24:58;;;;;;;7.65;5.75;;;8.90;99.90;;;-144.05;84.26;125687.94;6137057;23;20013;-88
2022/06/21 03:27:56;;;;;;;9.63;5.55;;;9.00;99.90;;;-144.05;84.45;125687.94;6138138;23;20016;-88
2022/06/21 03:30:34;;;;;;;8.88;5.40;;;8.90;99.90;;;-144.05;84.43;125687.94;6162900;23;20124;-87
2022/06/21 03:33:03;;;;;;;9.07;5.13;;;9.00;99.90;;;-144.05;84.51;125687.94;6137277;23;20090;-87
2022/06/21 03:35:34;;;;;;;10.10;5.63;;;9.30;99.90;;;-144.05;84.52;125687.94;6138041;23;20079;-88
2022/06/21 03:38:02;;;;;;;9.10;5.65;;;8.90;99.90;;;-144.05;84.67;125687.94;6138921;23;20013;-89
2022/06/21 03:43:58;;;;;;;6.05;5.30;;;8.90;99.90;;;-144.05;84.77;125687.94;6163323;23;20021;-87
2022/06/21 03:46:51;;;;;;;9.88;6.88;;;9.10;99.90;;;-144.05;85.01;125687.94;6083247;23;20009;-90
2022/06/21 03:49:34;;;;;;;9.75;6.15;;;9.00;99.90;;;-144.05;84.86;125687.94;6136463;23;20339;-89
2022/06/21 03:52:09;;;;;;;8.50;5.60;;;9.00;99.90;;;-144.05;84.82;125687.94;6161807;23;20364;-85
2022/06/21 03:54:46;;;;;;;;;;;9.10;99.90;;;-144.05;84.77;125687.94;6136029;23;20006;-89
2022/06/21 03:57:33;;;;;;;6.97;4.70;;;9.10;99.90;;;-144.05;84.71;125687.94;6134736;23;20181;-89
2022/06/21 04:00:11;;;;;;;8.07;5.30;;;9.00;99.90;;;-144.05;85.16;125687.94;6134205;23;20010;-87
2022/06/21 04:03:31;;;;;;;8.27;5.40;;;9.00;99.90;;;-144.05;85.36;125687.94;6158757;23;20013;-88
2022/06/21 04:06:24;;;;;;;10.15;5.75;;;9.10;99.90;;;-144.05;85.36;125687.94;6133720;23;20010;-86
2022/06/21 04:09:20;;;;;;;9.68;6.97;;;9.10;99.90;;;-144.05;85.69;125687.94;6133938;23;20017;-90
2022/06/21 04:12:06;;;;;;;8.17;5.93;;;9.20;99.90;;;-144.05;85.58;125687.94;6174100;23;20061;-86
2022/06/21 04:14:57;;;;;;;9.38;5.78;;;9.30;99.90;;;-144.05;85.41;125687.94;6181172;23;20253;-81
2022/06/21 04:17:48;;;;;;;11.57;5.95;;;9.30;99.90;;;-144.05;85.50;125687.94;6157511;23;20056;-84
2022/06/21 04:20:24;;;;;;;9.70;5.93;;;9.40;99.90;;;-144.05;85.32;125687.94;6172614;23;20009;-89
2022/06/21 04:23:33;;;;;;;10.32;6.10;;;9.50;99.90;;;-144.05;85.46;125687.94;6184536;23;20052;-90
2022/06/21 04:26:19;;;;;;;8.50;5.50;;;9.50;99.90;;;-144.05;85.34;125687.94;6121238;23;20060;-88
2022/06/21 04:28:59;;;;;;;8.75;6.38;;;9.60;99.90;;;-144.05;85.25;125687.94;6134995;23;20068;-88
2022/06/21 04:31:36;;;;;;;9.48;5.10;;;9.70;99.90;;;-144.05;85.52;125687.94;6135362;23;20009;-84
2022/06/21 04:34:42;;;;;;;9.48;6.32;;;9.80;99.90;;;-144.05;85.50;125687.94;6183746;23;20092;-87
2022/06/21 04:37:24;;;;;;;11.18;6.85;;;10.00;99.90;;;-144.05;85.40;125687.94;6134737;23;20013;-87
2022/06/21 04:40:17;;;;;;;10.02;6.53;;;10.20;99.90;;;-144.05;85.18;125687.94;6135015;23;20009;-86
2022/06/21 04:43:21;;;;;;;8.00;5.55;;;10.40;99.90;;;-144.05;84.88;125687.94;6161296;23;20009;-89
2022/06/21 04:46:20;;;;;;;11.85;7.10;;;10.60;99.90;;;-144.05;84.36;125687.94;6160459;23;20016;-89
2022/06/21 04:49:04;;;;;;;11.27;6.82;;;10.90;99.90;;;-144.05;83.72;125687.94;6129205;23;20009;-88
2022/06/21 04:51:38;;;;;;;11.77;6.68;;;11.10;99.90;;;-144.05;82.33;125687.94;6134249;23;20465;-88
2022/06/21 04:54:18;;;;;;;10.13;6.13;;;11.40;99.90;;;-144.05;81.60;125687.94;6134369;23;20342;-89
2022/06/21 04:57:16;;;;;;;11.23;6.10;;;11.60;99.90;;;-144.05;80.28;125687.94;6135767;23;20466;-86
2022/06/21 04:59:52;;;;;;;9.75;6.05;;;11.80;99.90;;;-144.05;79.13;125687.94;6135480;23;20016;-87
2022/06/21 05:02:33;;;;;;;12.63;5.25;;;12.00;99.90;;;-144.05;78.59;125687.94;6137103;23;20073;-85
2022/06/21 05:05:09;;;;;;;8.38;5.28;;;12.30;99.90;;;-144.05;77.27;125687.94;6137736;23;20010;-87
2022/06/21 05:07:56;;;;;;;8.02;5.68;;;12.50;99.90;;;-144.05;76.07;125687.94;6161877;23;20010;-89
2022/06/21 05:10:31;;;;;;;7.93;5.32;;;12.70;99.90;;;-144.05;75.28;125687.94;6136921;23;20009;-88
2022/06/21 05:13:10;;;;;;;8.00;4.97;;;12.90;99.90;;;-144.05;74.00;125687.94;6161929;23;20006;-89
2022/06/21 05:15:41;;;;;;;8.02;4.93;;;13.10;99.90;;;-144.05;71.87;125687.94;6162407;23;20009;-90
2022/06/21 05:18:28;;;;;;;8.30;4.80;;;13.50;99.90;;;-144.05;68.20;125687.94;6138325;23;20032;-88
2022/06/21 05:21:22;;;;;;;11.73;4.93;;;13.70;99.90;;;-144.05;65.82;125687.94;6189546;23;20044;-86
2022/06/21 05:23:48;;;;;;;9.13;4.43;;;13.90;99.90;;;-144.05;64.60;125687.94;6138439;23;20101;-85
2022/06/21 05:26:40;;;;;;;8.00;4.20;;;14.20;99.90;;;-144.05;63.60;125687.94;6164537;23;20037;-87
2022/06/21 05:29:29;;;;;;;8.98;5.95;;;14.50;99.90;;;-144.05;62.40;125687.94;6164081;23;20016;-88
2022/06/21 05:32:03;;;;;;;15.32;8.65;;;14.70;99.90;;;-144.05;61.09;125687.94;6164511;23;20447;-85
2022/06/21 05:34:48;;;;;;;6.72;3.95;;;14.90;99.90;;;-144.05;60.29;125687.94;6164832;23;20009;-87
2022/06/21 05:37:50;;;;;;;5.30;2.50;;;15.20;99.90;;;-144.05;59.44;125687.94;6140802;23;20033;-89
2022/06/21 05:40:41;;;;;;;8.95;2.58;;;15.50;99.90;;;-144.05;57.00;125687.94;6138673;23;20005;-89
2022/06/21 05:43:35;;;;;;;9.55;2.65;;;15.60;99.90;;;-144.05;56.99;125687.94;6138902;23;20404;-86
2022/06/21 05:46:13;;;;;;;5.65;2.30;;;15.60;99.90;;;-144.05;56.94;125687.94;6141619;23;20367;-89
2022/06/21 05:48:42;;;;;;;6.47;2.75;;;15.70;99.90;;;-144.05;56.66;125687.94;6139245;23;20012;-85
2022/06/21 05:51:26;;;;;;;8.02;3.13;;;15.70;99.90;;;-144.05;57.17;125687.94;6137856;23;20069;-90
2022/06/21 05:54:05;;;;;;;4.55;1.88;;;16.00;99.90;;;-144.05;56.24;125687.94;6165924;23;20028;-87
2022/06/21 05:56:34;;;;;;;8.85;2.80;;;16.30;99.90;;;-144.05;54.87;125687.94;6163494;23;20064;-86
2022/06/21 05:59:06;;;;;;;5.65;2.03;;;16.70;99.90;;;-144.05;53.02;125687.94;6139446;23;20363;-88
2022/06/21 06:01:53;;;;;;;9.63;2.92;;;16.90;99.90;;;-144.05;52.94;125687.94;6139226;23;20328;-87
2022/06/21 06:04:53;;;;;;;8.55;2.70;;;17.00;99.90;;;-144.05;51.44;125687.94;6167066;23;20073;-85
2022/06/21 06:07:56;;;;;;;7.93;2.25;;;17.10;99.90;;;-144.05;51.64;125687.94;6168290;23;20005;-88
2022/06/21 06:10:25;;;;;;;9.23;2.55;;;17.30;99.90;;;-144.05;50.14;125687.94;6164755;23;20044;-85
2022/06/21 06:13:03;;;;;;;3.40;1.85;;;17.60;99.90;;;-144.05;50.58;125687.94;6141067;23;20005;-89
2022/06/21 06:15:42;;;;;;;7.30;2.38;;;17.90;99.90;;;-144.05;49.38;125687.94;6164738;23;20002;-88
2022/06/21 06:18:49;;;;;;;8.80;2.30;;;18.10;99.90;;;-144.05;49.08;125687.94;6165143;23;20013;-88
2022/06/21 06:21:47;;;;;;;10.05;2.45;;;18.10;99.90;;;-144.05;48.42;125687.94;6139056;23;20088;-90
2022/06/21 06:24:29;;;;;;;10.13;2.47;;;18.20;99.90;;;-144.05;48.32;125687.94;6133777;23;20009;-88
2022/06/21 06:27:02;;;;;;;8.07;2.10;;;18.20;99.90;;;-144.05;48.20;125687.94;6142378;23;20135;-87
2022/06/21 06:29:48;;;;;;;6.53;1.98;;;18.40;99.90;;;-144.05;47.24;125687.94;6146224;23;20077;-89
2022/06/21 06:32:47;;;;;;;4.22;1.90;;;18.60;99.90;;;-144.05;46.77;125687.94;6136404;23;20103;-85
2022/06/21 06:35:24;;;;;;;5.63;2.35;;;18.90;99.90;;;-144.05;46.12;125687.94;6161584;23;20427;-88
2022/06/21 06:37:52;;;;;;;6.70;2.30;;;19.10;99.90;;;-144.05;46.06;125687.94;6160932;23;20466;-89
2022/06/21 06:40:30;;;;;;;8.63;2.28;;;19.20;99.90;;;-144.05;45.49;125687.94;6161603;23;20018;-87
2022/06/21 06:43:16;;;;;;;4.63;1.67;;;19.50;99.90;;;-144.05;45.03;125687.94;6136808;23;20435;-89
2022/06/21 06:45:43;;;;;;;6.28;2.22;;;20.00;99.90;;;-144.05;43.40;125687.94;6163567;23;20010;-88
2022/06/21 06:48:23;;;;;;;5.70;1.70;;;20.30;99.90;;;-144.05;43.05;125687.94;6160743;23;20015;-85
2022/06/21 06:51:04;;;;;;;7.05;2.00;;;20.60;99.90;;;-144.05;43.08;125687.94;6137612;23;20021;-86
2022/06/21 06:53:50;;;;;;;6.25;2.22;;;20.80;99.90;;;-144.05;41.41;125687.94;6184397;23;20006;-88
2022/06/21 06:56:31;;;;;;;6.57;2.03;;;21.00;99.90;;;-144.05;41.11;125687.94;6160813;23;20002;-88
2022/06/21 06:59:16;;;;;;;6.55;1.60;;;20.90;99.90;;;-144.05;40.65;125687.94;6160313;23;20009;-89
2022/06/21 07:02:40;;;;;;;7.53;1.98;;;21.00;99.90;;;-144.05;40.50;125687.94;6133664;23;20006;-91
2022/06/21 07:05:31;;;;;;;5.32;1.98;;;21.10;99.90;;;-144.05;40.51;125687.94;6133791;23;20024;-87
2022/06/21 07:08:16;;;;;;;4.35;1.77;;;21.40;99.90;;;-144.05;38.42;125687.94;6134198;23;20510;-87
2022/06/21 07:10:47;;;;;;;4.97;1.90;;;21.60;95.30;;;-144.05;39.42;125687.94;6133943;23;20014;-88
2022/06/21 07:13:15;;;;;;;5.43;2.00;;;21.50;96.40;;;-144.05;38.80;125687.94;6134659;23;20033;-89
2022/06/21 07:15:47;;;;;;;3.60;1.70;;;21.50;95.10;;;-144.05;38.75;125687.94;6185555;23;20084;-87
2022/06/21 07:18:31;;;;;;;6.22;2.22;;;21.50;94.30;;;-144.05;39.88;125687.94;6135793;23;20009;-89
2022/06/21 07:20:59;;;;;;;6.03;2.00;;;21.50;96.70;;;-144.05;40.30;125687.94;6162368;23;20432;-87
2022/06/21 07:23:29;;;;;;;3.05;1.50;;;21.30;95.70;;;-144.05;40.18;125687.94;6161053;23;20009;-88
2022/06/21 07:26:03;;;;;;;4.13;2.00;;;21.10;96.60;;;-144.05;38.74;125687.94;6162311;23;20016;-90
2022/06/21 07:28:44;;;;;;;4.63;1.63;;;21.20;94.70;;;-144.05;38.37;125687.94;6161539;23;20013;-88
2022/06/21 07:31:27;;;;;;;5.75;1.88;;;21.40;93.70;;;-144.05;38.48;125687.94;6136006;23;20013;-86
2022/06/21 07:34:23;;;;;;;3.80;1.80;;;21.80;95.10;;;-144.05;38.42;125687.94;6133841;23;20090;-89
2022/06/21 07:37:28;;;;;;;;;;;22.00;92.80;;;-144.05;38.29;125687.94;6160849;23;20030;-90
2022/06/21 07:40:25;;;;;;;5.63;1.33;;;21.90;92.40;;;-144.05;37.57;125687.94;6134857;23;19984;-87
2022/06/21 07:43:25;;;;;;;7.03;1.63;;;22.10;92.70;;;-144.05;37.32;125687.94;6135005;23;20006;-89
2022/06/21 07:46:07;;;;;;;5.32;2.08;;;22.30;92.10;;;-144.05;38.16;125687.94;6185722;23;20037;-88
2022/06/21 07:48:44;;;;;;;5.80;1.80;;;22.00;91.20;;;-144.05;38.74;125687.94;6137327;23;20040;-85
2022/06/21 07:51:28;;;;;;;7.50;2.10;;;22.00;93.60;;;-144.05;38.48;125687.94;6199234;23;20363;-89
2022/06/21 07:54:20;;;;;;;3.92;1.45;;;22.00;91.70;;;-144.05;37.92;125687.94;6176595;23;20008;-87
2022/06/21 07:57:30;;;;;;;5.70;1.85;;;21.90;90.50;;;-144.05;38.21;125687.94;6190916;23;20009;-87
2022/06/21 08:00:21;;;;;;;3.60;1.52;;;21.80;90.60;;;-144.05;37.30;125687.94;6132024;23;20005;-88
2022/06/21 08:09:29;;;;;;;2.78;1.60;;;22.80;84.20;;;-144.05;35.38;125687.94;6157374;23;20021;-87
2022/06/21 08:12:01;;;;;;;5.80;1.85;;;23.10;83.40;;;-144.05;35.16;125687.94;6131859;23;20450;-85
2022/06/21 08:14:34;;;;;;;3.60;1.20;;;22.80;79.80;;;-144.05;35.80;125687.94;6132187;23;20103;-90
2022/06/21 08:17:33;;;;;;;4.55;1.90;;;22.70;83.50;;;-144.05;35.47;125687.94;6132271;23;20010;-87
2022/06/21 08:20:26;;;;;;;6.88;2.15;;;22.90;82.80;;;-144.05;34.86;125687.94;6134002;23;20389;-90
2022/06/21 08:23:21;;;;;;;2.80;1.20;;;23.00;78.10;;;-144.05;33.90;125687.94;6133881;23;20101;-89
2022/06/21 08:26:10;;;;;;;4.53;1.45;;;23.30;76.80;;;-144.05;33.63;125687.94;6183329;23;20408;-89
2022/06/21 08:28:53;;;;;;;3.97;1.48;;;23.60;77.30;;;-144.05;32.82;125687.94;6133697;23;20081;-89
2022/06/21 08:31:44;;;;;;;3.00;1.02;;;23.60;72.90;;;-144.05;32.54;125687.94;6134044;23;20005;-89
2022/06/21 08:34:23;;;;;;;2.55;1.00;;;23.40;70.20;;;-144.05;31.58;125687.94;6159044;23;20086;-90
2022/06/21 08:37:35;;;;;;;3.30;1.48;;;23.70;68.60;;;-144.05;31.53;125687.94;6184757;23;20010;-91
2022/06/21 08:40:38;;;;;;;3.50;1.00;;;23.60;66.90;;;-144.05;31.53;125687.94;6138678;23;20016;-90
2022/06/21 08:43:54;;;;;;;4.70;1.42;;;23.30;67.50;;;-144.05;33.60;125687.94;6137785;23;20025;-88
2022/06/21 08:47:32;;;;;;;3.10;1.50;;;23.30;71.40;;;-144.05;33.33;125687.94;6071295;23;20092;-86
2022/06/21 08:50:42;;;;;;;4.85;1.33;;;23.30;73.50;;;-144.05;32.26;125687.94;6187809;23;20049;-88
2022/06/21 08:53:35;;;;;;;6.28;1.80;;;23.60;70.00;;;-144.05;33.36;125687.94;6183593;23;20013;-86
2022/06/21 08:56:32;;;;;;;5.40;1.20;;;23.70;71.90;;;-144.05;32.82;125687.94;6133977;23;20335;-86
2022/06/21 09:00:04;;;;;;;3.97;1.33;;;23.50;70.30;;;-144.05;33.26;125687.94;6132270;23;20101;-87
2022/06/21 09:02:55;;;;;;;2.58;1.17;;;23.40;71.70;;;-144.05;32.96;125687.94;6016366;23;20086;-88
2022/06/21 09:06:14;;;;;;;3.00;1.08;;;23.30;70.10;;;-144.05;32.12;125687.94;6131627;23;20016;-88
2022/06/21 09:09:17;;;;;;;3.55;1.23;;;23.30;68.20;;;-144.05;32.40;125687.94;6033870;23;20375;-86
2022/06/21 09:12:36;;;;;;;3.45;1.27;;;23.30;68.60;;;-144.05;31.55;125687.94;6131944;23;20013;-85
2022/06/21 09:15:43;;;;;;;3.13;1.10;;;23.50;65.40;;;-144.05;32.41;125687.94;6123056;23;20037;-89
2022/06/21 09:18:39;;;;;;;4.65;1.05;;;23.00;68.10;;;-144.05;32.31;125687.94;6097783;23;20429;-89
2022/06/21 09:21:57;;;;;;;3.28;0.90;;;23.10;67.80;;;-144.05;32.21;125687.94;6158719;23;20015;-89
2022/06/21 09:24:47;;;;;;;3.67;1.20;;;23.50;68.30;;;-144.05;30.85;125687.94;6131274;23;20432;-90
2022/06/21 09:27:46;;;;;;;2.67;0.70;;;24.20;65.10;;;-144.05;31.01;125687.94;6132151;23;20010;-85
2022/06/21 09:30:28;;;;;;;3.83;1.45;;;24.60;66.20;;;-144.05;30.19;125687.94;6131976;23;20471;-90
2022/06/21 09:33:41;;;;;;;3.75;1.38;;;24.60;62.60;;;-144.05;30.14;125687.94;6157107;23;20006;-88
2022/06/21 09:37:24;;;;;;;2.53;0.82;;;25.20;65.40;;;-144.05;29.41;125687.94;6131787;23;20009;-88
2022/06/21 09:40:22;;;;;;;5.38;1.58;;;24.80;58.20;;;-144.05;30.64;125687.94;6146380;23;20016;-87
2022/06/21 09:43:44;;;;;;;4.05;1.25;;;24.70;61.60;;;-144.05;30.39;125687.94;6181241;23;20017;-87
2022/06/21 09:46:53;;;;;;;5.63;1.58;;;24.90;62.40;;;-144.05;30.84;125687.94;6132642;23;20072;-89
2022/06/21 09:49:41;;;;;;;5.13;1.63;;;24.70;64.20;;;-144.05;31.41;125687.94;6156012;23;20092;-89
2022/06/21 09:52:30;;;;;;;3.90;1.75;;;24.40;64.50;;;-144.05;32.12;125687.94;6144640;23;20003;-84
2022/06/21 09:55:34;;;;;;;3.78;1.80;;;24.20;66.00;;;-144.05;31.83;125687.94;6205679;23;20036;-83
2022/06/21 09:58:39;;;;;;;8.65;1.92;;;24.20;65.60;;;-144.05;32.68;125687.94;6180781;23;20017;-83
2022/06/21 10:01:53;;;;;;;3.67;1.45;;;24.10;67.00;;;-144.05;31.36;125687.94;6132451;23;20077;-86
2022/06/21 10:04:50;;;;;;;3.78;1.27;;;24.40;64.70;;;-144.05;31.94;125687.94;6145518;23;20036;-87
2022/06/21 10:08:19;;;;;;;2.97;1.40;;;25.00;68.10;;;-144.05;29.79;125687.94;6133939;23;20036;-87
2022/06/21 10:11:19;;;;;;;4.15;1.30;;;25.30;59.90;;;-144.05;30.70;125687.94;6148963;23;20104;-85
2022/06/21 10:14:42;;;;;;;4.47;1.30;;;25.50;63.20;;;-144.05;31.27;125687.94;6158840;23;20009;-86
2022/06/21 10:17:57;;;;;;;7.18;1.25;;;25.00;63.00;;;-144.05;32.37;125687.94;6039157;23;20453;-87
2022/06/21 10:21:02;;;;;;;3.20;1.20;;;24.30;65.20;;;-144.05;31.59;125687.94;6063398;23;20035;-88
2022/06/21 10:24:24;;;;;;;4.53;1.63;;;24.00;63.40;;;-144.05;32.14;125687.94;6131782;23;20013;-87
2022/06/21 10:27:44;;;;;;;2.97;1.00;;;23.60;64.90;;;-144.05;32.24;125687.94;6180693;23;20053;-86
2022/06/21 10:30:39;;;;;;;3.97;1.30;;;23.50;65.40;;;-144.05;32.94;125687.94;6180558;23;20037;-86
2022/06/21 10:33:36;;;;;;;3.28;1.27;;;22.90;65.60;;;-144.05;33.50;125687.94;6180596;23;20109;-86
2022/06/21 10:36:46;;;;;;;4.15;1.33;;;22.70;67.30;;;-144.05;32.99;125687.94;6132808;23;20005;-87
2022/06/21 10:40:01;;;;;;;2.90;1.35;;;22.90;67.50;;;-144.05;33.42;125687.94;6156280;23;20006;-88
2022/06/21 10:43:31;;;;;;;5.63;1.48;;;23.40;67.30;;;-144.05;33.92;125687.94;6131091;23;20033;-88
2022/06/21 10:46:26;;;;;;;3.30;1.30;;;23.80;70.50;;;-144.05;31.56;125687.94;6131548;23;20009;-88
2022/06/21 10:49:25;;;;;;;6.40;1.77;;;23.90;66.20;;;-144.05;31.14;125687.94;6132337;23;20092;-87
2022/06/21 10:52:49;;;;;;;3.33;1.08;;;24.30;63.00;;;-144.05;31.15;125687.94;6184052;23;20009;-90
2022/06/21 10:55:49;;;;;;;3.60;1.10;;;24.60;63.10;;;-144.05;30.61;125687.94;6161683;23;20005;-87
2022/06/21 10:58:52;;;;;;;4.50;1.38;;;24.80;61.70;;;-144.05;30.52;125687.94;6132104;23;20002;-88
2022/06/21 11:01:42;;;;;;;6.28;1.42;;;24.90;61.80;;;-144.05;31.38;125687.94;6158573;23;20048;-87
2022/06/21 11:04:32;;;;;;;5.78;1.48;;;24.50;62.20;;;-144.05;31.78;125687.94;6133503;23;20072;-87
2022/06/21 11:07:42;;;;;;;2.17;1.10;;;24.40;63.80;;;-144.05;31.36;125687.94;6132952;23;20017;-86
2022/06/21 11:10:22;;;;;;;10.45;1.80;;;24.70;62.20;;;-144.05;31.08;125687.94;6165731;23;20093;-87
2022/06/21 11:13:04;;;;;;;3.47;1.50;;;24.90;63.00;;;-144.05;31.01;125687.94;6141594;23;20005;-88
2022/06/21 11:16:04;;;;;;;5.35;1.60;;;25.10;63.40;;;-144.05;30.40;125687.94;6159073;23;20009;-88
2022/06/21 11:19:19;;;;;;;3.97;1.35;;;25.10;61.10;;;-144.05;31.21;125687.94;6158439;23;20005;-87
2022/06/21 11:22:16;;;;;;;4.80;1.48;;;24.90;63.00;;;-144.05;31.04;125687.94;6131133;23;20006;-86
2022/06/21 11:25:40;;;;;;;4.65;1.55;;;25.00;63.00;;;-144.05;31.50;125687.94;6181377;23;20009;-88
2022/06/21 11:28:31;;;;;;;6.35;1.10;;;24.90;63.00;;;-144.05;31.50;125687.94;6158939;23;20012;-87
2022/06/21 11:31:47;;;;;;;4.65;1.40;;;24.60;62.90;;;-144.05;31.94;125687.94;6180989;23;20036;-89
2022/06/21 11:34:48;;;;;;;6.93;1.92;;;24.10;63.20;;;-144.05;32.97;125687.94;6131139;23;20336;-88
2022/06/21 11:37:41;;;;;;;3.85;1.33;;;23.40;65.00;;;-144.05;33.09;125687.94;6158007;23;20012;-87